sensor_id;sensor_type;location;lat;lon;timestamp;pressure;altitude;pressure_sealevel;temperature
14851;BMP180;7517;48.400;11.770;2023-07-16T00:02:22;96254.00;;;27.50
14851;BMP180;7517;48.400;11.770;2023-07-16T00:04:49;96200.00;;;27.30
14851;BMP180;7517;48.400;11.770;2023-07-16T00:07:16;96106.00;;;27.00
14851;BMP180;7517;48.400;11.770;2023-07-16T00:09:44;96107.00;;;26.60
14851;BMP180;7517;48.400;11.770;2023-07-16T00:12:12;96082.00;;;26.10
14851;BMP180;7517;48.400;11.770;2023-07-16T00:14:39;96081.00;;;25.70
14851;BMP180;7517;48.400;11.770;2023-07-16T00:17:06;96085.00;;;25.40
14851;BMP180;7517;48.400;11.770;2023-07-16T00:19:33;96109.00;;;25.20
14851;BMP180;7517;48.400;11.770;2023-07-16T00:22:00;96113.00;;;25.00
14851;BMP180;7517;48.400;11.770;2023-07-16T00:24:27;96119.00;;;24.90
14851;BMP180;7517;48.400;11.770;2023-07-16T00:26:56;96123.00;;;24.80
14851;BMP180;7517;48.400;11.770;2023-07-16T00:29:24;96125.00;;;24.70
14851;BMP180;7517;48.400;11.770;2023-07-16T00:31:51;96140.00;;;24.60
14851;BMP180;7517;48.400;11.770;2023-07-16T00:34:18;96145.00;;;24.50
14851;BMP180;7517;48.400;11.770;2023-07-16T00:36:46;96139.00;;;24.40
14851;BMP180;7517;48.400;11.770;2023-07-16T00:39:13;96127.00;;;24.30
14851;BMP180;7517;48.400;11.770;2023-07-16T00:41:40;96119.00;;;24.30
14851;BMP180;7517;48.400;11.770;2023-07-16T00:44:09;96120.00;;;24.20
14851;BMP180;7517;48.400;11.770;2023-07-16T00:46:37;96137.00;;;24.10
14851;BMP180;7517;48.400;11.770;2023-07-16T00:49:05;96139.00;;;24.10
14851;BMP180;7517;48.400;11.770;2023-07-16T00:51:33;96137.00;;;24.10
14851;BMP180;7517;48.400;11.770;2023-07-16T00:54:01;96146.00;;;24.10
14851;BMP180;7517;48.400;11.770;2023-07-16T00:56:29;96155.00;;;24.10
14851;BMP180;7517;48.400;11.770;2023-07-16T00:58:57;96185.00;;;24.10
14851;BMP180;7517;48.400;11.770;2023-07-16T01:01:26;96246.00;;;24.10
14851;BMP180;7517;48.400;11.770;2023-07-16T01:03:53;96328.00;;;24.10
14851;BMP180;7517;48.400;11.770;2023-07-16T01:06:30;96386.00;;;24.10
14851;BMP180;7517;48.400;11.770;2023-07-16T01:09:06;96403.00;;;24.10
14851;BMP180;7517;48.400;11.770;2023-07-16T01:11:36;96383.00;;;24.10
14851;BMP180;7517;48.400;11.770;2023-07-16T01:14:06;96410.00;;;24.10
14851;BMP180;7517;48.400;11.770;2023-07-16T01:16:36;96426.00;;;24.10
14851;BMP180;7517;48.400;11.770;2023-07-16T01:19:03;96432.00;;;24.20
14851;BMP180;7517;48.400;11.770;2023-07-16T01:21:37;96433.00;;;24.20
14851;BMP180;7517;48.400;11.770;2023-07-16T01:30:39;96432.00;;;24.20
14851;BMP180;7517;48.400;11.770;2023-07-16T01:33:11;96432.00;;;24.30
14851;BMP180;7517;48.400;11.770;2023-07-16T01:35:42;96434.00;;;24.30
14851;BMP180;7517;48.400;11.770;2023-07-16T01:38:11;96432.00;;;24.30
14851;BMP180;7517;48.400;11.770;2023-07-16T01:40:39;96436.00;;;24.30
14851;BMP180;7517;48.400;11.770;2023-07-16T01:43:06;96438.00;;;24.40
14851;BMP180;7517;48.400;11.770;2023-07-16T01:45:36;96438.00;;;24.40
14851;BMP180;7517;48.400;11.770;2023-07-16T01:48:27;96446.00;;;24.40
14851;BMP180;7517;48.400;11.770;2023-07-16T01:50:56;96450.00;;;24.40
14851;BMP180;7517;48.400;11.770;2023-07-16T01:53:22;96440.00;;;24.40
14851;BMP180;7517;48.400;11.770;2023-07-16T01:55:50;96448.00;;;24.40
14851;BMP180;7517;48.400;11.770;2023-07-16T01:58:17;96446.00;;;24.50
14851;BMP180;7517;48.400;11.770;2023-07-16T02:00:46;96451.00;;;24.50
14851;BMP180;7517;48.400;11.770;2023-07-16T02:03:14;96453.00;;;24.50
14851;BMP180;7517;48.400;11.770;2023-07-16T02:05:41;96463.00;;;24.50
14851;BMP180;7517;48.400;11.770;2023-07-16T02:08:08;96458.00;;;24.50
14851;BMP180;7517;48.400;11.770;2023-07-16T02:10:35;96454.00;;;24.40
14851;BMP180;7517;48.400;11.770;2023-07-16T02:13:02;96462.00;;;24.50
14851;BMP180;7517;48.400;11.770;2023-07-16T02:15:30;96460.00;;;24.40
14851;BMP180;7517;48.400;11.770;2023-07-16T02:17:58;96464.00;;;24.40
14851;BMP180;7517;48.400;11.770;2023-07-16T02:20:27;96468.00;;;24.40
14851;BMP180;7517;48.400;11.770;2023-07-16T02:22:54;96474.00;;;24.40
14851;BMP180;7517;48.400;11.770;2023-07-16T02:25:21;96486.00;;;24.40
14851;BMP180;7517;48.400;11.770;2023-07-16T02:27:48;96483.00;;;24.40
14851;BMP180;7517;48.400;11.770;2023-07-16T02:30:15;96492.00;;;24.40
14851;BMP180;7517;48.400;11.770;2023-07-16T02:32:43;96483.00;;;24.50
14851;BMP180;7517;48.400;11.770;2023-07-16T02:35:12;96474.00;;;24.50
14851;BMP180;7517;48.400;11.770;2023-07-16T02:37:39;96484.00;;;24.50
14851;BMP180;7517;48.400;11.770;2023-07-16T02:40:08;96486.00;;;24.50
14851;BMP180;7517;48.400;11.770;2023-07-16T02:42:34;96494.00;;;24.50
14851;BMP180;7517;48.400;11.770;2023-07-16T02:45:02;96494.00;;;24.50
14851;BMP180;7517;48.400;11.770;2023-07-16T02:47:29;96507.00;;;24.50
14851;BMP180;7517;48.400;11.770;2023-07-16T02:49:56;96505.00;;;24.50
14851;BMP180;7517;48.400;11.770;2023-07-16T02:52:25;96503.00;;;24.60
14851;BMP180;7517;48.400;11.770;2023-07-16T02:54:52;96514.00;;;24.60
14851;BMP180;7517;48.400;11.770;2023-07-16T02:57:21;96515.00;;;24.60
14851;BMP180;7517;48.400;11.770;2023-07-16T02:59:48;96518.00;;;24.60
14851;BMP180;7517;48.400;11.770;2023-07-16T03:02:16;96535.00;;;24.60
14851;BMP180;7517;48.400;11.770;2023-07-16T03:04:43;96548.00;;;24.60
14851;BMP180;7517;48.400;11.770;2023-07-16T03:07:10;96547.00;;;24.60
14851;BMP180;7517;48.400;11.770;2023-07-16T03:09:39;96547.00;;;24.60
14851;BMP180;7517;48.400;11.770;2023-07-16T03:12:07;96550.00;;;24.70
14851;BMP180;7517;48.400;11.770;2023-07-16T03:14:35;96537.00;;;24.60
14851;BMP180;7517;48.400;11.770;2023-07-16T03:17:02;96544.00;;;24.60
14851;BMP180;7517;48.400;11.770;2023-07-16T03:19:32;96540.00;;;24.60
14851;BMP180;7517;48.400;11.770;2023-07-16T03:21:59;96542.00;;;24.60
14851;BMP180;7517;48.400;11.770;2023-07-16T03:24:28;96546.00;;;24.60
14851;BMP180;7517;48.400;11.770;2023-07-16T03:26:57;96548.00;;;24.60
14851;BMP180;7517;48.400;11.770;2023-07-16T03:29:24;96551.00;;;24.60
14851;BMP180;7517;48.400;11.770;2023-07-16T03:31:51;96543.00;;;24.60
14851;BMP180;7517;48.400;11.770;2023-07-16T03:34:18;96548.00;;;24.60
14851;BMP180;7517;48.400;11.770;2023-07-16T03:36:45;96554.00;;;24.60
14851;BMP180;7517;48.400;11.770;2023-07-16T03:39:13;96550.00;;;24.60
14851;BMP180;7517;48.400;11.770;2023-07-16T03:41:40;96551.00;;;24.60
14851;BMP180;7517;48.400;11.770;2023-07-16T03:44:09;96550.00;;;24.60
14851;BMP180;7517;48.400;11.770;2023-07-16T03:46:36;96546.00;;;24.60
14851;BMP180;7517;48.400;11.770;2023-07-16T03:49:06;96544.00;;;24.60
14851;BMP180;7517;48.400;11.770;2023-07-16T03:51:34;96551.00;;;24.60
14851;BMP180;7517;48.400;11.770;2023-07-16T03:54:01;96555.00;;;24.50
14851;BMP180;7517;48.400;11.770;2023-07-16T03:56:28;96560.00;;;24.60
14851;BMP180;7517;48.400;11.770;2023-07-16T03:58:55;96563.00;;;24.60
14851;BMP180;7517;48.400;11.770;2023-07-16T04:01:24;96561.00;;;24.50
14851;BMP180;7517;48.400;11.770;2023-07-16T04:03:52;96560.00;;;24.60
14851;BMP180;7517;48.400;11.770;2023-07-16T04:06:19;96560.00;;;24.50
14851;BMP180;7517;48.400;11.770;2023-07-16T04:08:46;96554.00;;;24.50
14851;BMP180;7517;48.400;11.770;2023-07-16T04:11:14;96569.00;;;24.50
14851;BMP180;7517;48.400;11.770;2023-07-16T04:13:41;96571.00;;;24.50
14851;BMP180;7517;48.400;11.770;2023-07-16T04:16:10;96570.00;;;24.50
14851;BMP180;7517;48.400;11.770;2023-07-16T04:18:39;96578.00;;;24.50
14851;BMP180;7517;48.400;11.770;2023-07-16T04:21:06;96576.00;;;24.50
14851;BMP180;7517;48.400;11.770;2023-07-16T04:23:33;96579.00;;;24.50
14851;BMP180;7517;48.400;11.770;2023-07-16T04:26:01;96579.00;;;24.50
14851;BMP180;7517;48.400;11.770;2023-07-16T04:28:28;96583.00;;;24.50
14851;BMP180;7517;48.400;11.770;2023-07-16T04:30:55;96583.00;;;24.50
14851;BMP180;7517;48.400;11.770;2023-07-16T04:33:22;96594.00;;;24.50
14851;BMP180;7517;48.400;11.770;2023-07-16T04:35:51;96591.00;;;24.50
14851;BMP180;7517;48.400;11.770;2023-07-16T04:38:18;96586.00;;;24.50
14851;BMP180;7517;48.400;11.770;2023-07-16T04:40:45;96581.00;;;24.60
14851;BMP180;7517;48.400;11.770;2023-07-16T04:43:12;96585.00;;;24.60
14851;BMP180;7517;48.400;11.770;2023-07-16T04:45:40;96594.00;;;24.60
14851;BMP180;7517;48.400;11.770;2023-07-16T04:48:07;96604.00;;;24.60
14851;BMP180;7517;48.400;11.770;2023-07-16T04:50:34;96609.00;;;24.60
14851;BMP180;7517;48.400;11.770;2023-07-16T04:53:02;96624.00;;;24.60
14851;BMP180;7517;48.400;11.770;2023-07-16T04:55:35;96615.00;;;24.60
14851;BMP180;7517;48.400;11.770;2023-07-16T04:58:02;96622.00;;;24.60
14851;BMP180;7517;48.400;11.770;2023-07-16T05:00:31;96616.00;;;24.60
14851;BMP180;7517;48.400;11.770;2023-07-16T05:02:58;96632.00;;;24.60
14851;BMP180;7517;48.400;11.770;2023-07-16T05:05:27;96636.00;;;24.60
14851;BMP180;7517;48.400;11.770;2023-07-16T05:07:54;96646.00;;;24.70
14851;BMP180;7517;48.400;11.770;2023-07-16T05:10:23;96656.00;;;24.70
14851;BMP180;7517;48.400;11.770;2023-07-16T05:12:51;96652.00;;;24.70
14851;BMP180;7517;48.400;11.770;2023-07-16T05:15:18;96659.00;;;24.60
14851;BMP180;7517;48.400;11.770;2023-07-16T05:17:45;96657.00;;;24.60
14851;BMP180;7517;48.400;11.770;2023-07-16T05:20:13;96663.00;;;24.60
14851;BMP180;7517;48.400;11.770;2023-07-16T05:22:40;96656.00;;;24.60
14851;BMP180;7517;48.400;11.770;2023-07-16T05:25:08;96662.00;;;24.60
14851;BMP180;7517;48.400;11.770;2023-07-16T05:27:38;96667.00;;;24.50
14851;BMP180;7517;48.400;11.770;2023-07-16T05:30:08;96668.00;;;24.50
14851;BMP180;7517;48.400;11.770;2023-07-16T05:32:35;96658.00;;;24.50
14851;BMP180;7517;48.400;11.770;2023-07-16T05:35:04;96657.00;;;24.50
14851;BMP180;7517;48.400;11.770;2023-07-16T05:37:31;96653.00;;;24.50
14851;BMP180;7517;48.400;11.770;2023-07-16T05:39:58;96658.00;;;24.40
14851;BMP180;7517;48.400;11.770;2023-07-16T05:42:25;96660.00;;;24.40
14851;BMP180;7517;48.400;11.770;2023-07-16T05:44:54;96660.00;;;24.40
14851;BMP180;7517;48.400;11.770;2023-07-16T05:47:21;96660.00;;;24.50
14851;BMP180;7517;48.400;11.770;2023-07-16T05:49:49;96656.00;;;24.40
14851;BMP180;7517;48.400;11.770;2023-07-16T05:52:17;96667.00;;;24.40
14851;BMP180;7517;48.400;11.770;2023-07-16T05:54:45;96662.00;;;24.40
14851;BMP180;7517;48.400;11.770;2023-07-16T05:57:12;96670.00;;;24.40
14851;BMP180;7517;48.400;11.770;2023-07-16T05:59:39;96673.00;;;24.50
14851;BMP180;7517;48.400;11.770;2023-07-16T06:02:08;96681.00;;;24.50
14851;BMP180;7517;48.400;11.770;2023-07-16T06:04:35;96674.00;;;24.50
14851;BMP180;7517;48.400;11.770;2023-07-16T06:07:03;96663.00;;;24.50
14851;BMP180;7517;48.400;11.770;2023-07-16T06:09:31;96670.00;;;24.50
14851;BMP180;7517;48.400;11.770;2023-07-16T06:11:58;96676.00;;;24.50
14851;BMP180;7517;48.400;11.770;2023-07-16T06:14:25;96686.00;;;24.50
14851;BMP180;7517;48.400;11.770;2023-07-16T06:16:52;96685.00;;;24.50
14851;BMP180;7517;48.400;11.770;2023-07-16T06:19:21;96689.00;;;24.50
14851;BMP180;7517;48.400;11.770;2023-07-16T06:21:48;96686.00;;;24.50
14851;BMP180;7517;48.400;11.770;2023-07-16T06:24:15;96687.00;;;24.60
14851;BMP180;7517;48.400;11.770;2023-07-16T06:26:42;96695.00;;;24.60
14851;BMP180;7517;48.400;11.770;2023-07-16T06:29:09;96690.00;;;24.60
14851;BMP180;7517;48.400;11.770;2023-07-16T06:31:36;96691.00;;;24.70
14851;BMP180;7517;48.400;11.770;2023-07-16T06:34:03;96703.00;;;24.70
14851;BMP180;7517;48.400;11.770;2023-07-16T06:36:32;96701.00;;;24.70
14851;BMP180;7517;48.400;11.770;2023-07-16T06:38:59;96708.00;;;24.80
14851;BMP180;7517;48.400;11.770;2023-07-16T06:41:26;96716.00;;;24.80
14851;BMP180;7517;48.400;11.770;2023-07-16T06:43:54;96715.00;;;24.80
14851;BMP180;7517;48.400;11.770;2023-07-16T06:46:21;96715.00;;;24.80
14851;BMP180;7517;48.400;11.770;2023-07-16T06:48:48;96711.00;;;24.80
14851;BMP180;7517;48.400;11.770;2023-07-16T06:51:16;96717.00;;;24.90
14851;BMP180;7517;48.400;11.770;2023-07-16T06:53:44;96716.00;;;24.80
14851;BMP180;7517;48.400;11.770;2023-07-16T06:56:11;96718.00;;;24.80
14851;BMP180;7517;48.400;11.770;2023-07-16T06:58:39;96713.00;;;24.90
14851;BMP180;7517;48.400;11.770;2023-07-16T07:01:06;96714.00;;;24.90
14851;BMP180;7517;48.400;11.770;2023-07-16T07:03:33;96716.00;;;24.90
14851;BMP180;7517;48.400;11.770;2023-07-16T07:06:03;96710.00;;;25.00
14851;BMP180;7517;48.400;11.770;2023-07-16T07:08:30;96709.00;;;25.00
14851;BMP180;7517;48.400;11.770;2023-07-16T07:10:59;96707.00;;;25.10
14851;BMP180;7517;48.400;11.770;2023-07-16T07:13:26;96708.00;;;25.10
14851;BMP180;7517;48.400;11.770;2023-07-16T07:15:55;96712.00;;;25.20
14851;BMP180;7517;48.400;11.770;2023-07-16T07:18:22;96714.00;;;25.20
14851;BMP180;7517;48.400;11.770;2023-07-16T07:20:49;96718.00;;;25.30
14851;BMP180;7517;48.400;11.770;2023-07-16T07:23:18;96715.00;;;25.40
14851;BMP180;7517;48.400;11.770;2023-07-16T07:25:49;96713.00;;;25.40
14851;BMP180;7517;48.400;11.770;2023-07-16T07:28:20;96715.00;;;25.50
14851;BMP180;7517;48.400;11.770;2023-07-16T07:30:47;96714.00;;;25.50
14851;BMP180;7517;48.400;11.770;2023-07-16T07:33:14;96721.00;;;25.50
14851;BMP180;7517;48.400;11.770;2023-07-16T07:35:43;96720.00;;;25.60
14851;BMP180;7517;48.400;11.770;2023-07-16T07:38:10;96722.00;;;25.60
14851;BMP180;7517;48.400;11.770;2023-07-16T07:40:38;96722.00;;;25.70
14851;BMP180;7517;48.400;11.770;2023-07-16T07:43:05;96722.00;;;25.70
14851;BMP180;7517;48.400;11.770;2023-07-16T07:45:33;96718.00;;;25.70
14851;BMP180;7517;48.400;11.770;2023-07-16T07:48:01;96725.00;;;25.70
14851;BMP180;7517;48.400;11.770;2023-07-16T07:50:28;96720.00;;;25.80
14851;BMP180;7517;48.400;11.770;2023-07-16T07:52:55;96718.00;;;25.80
14851;BMP180;7517;48.400;11.770;2023-07-16T07:55:22;96715.00;;;25.80
14851;BMP180;7517;48.400;11.770;2023-07-16T07:57:50;96717.00;;;25.80
14851;BMP180;7517;48.400;11.770;2023-07-16T08:00:17;96710.00;;;25.80
14851;BMP180;7517;48.400;11.770;2023-07-16T08:02:46;96716.00;;;25.80
14851;BMP180;7517;48.400;11.770;2023-07-16T08:05:13;96723.00;;;25.90
14851;BMP180;7517;48.400;11.770;2023-07-16T08:07:40;96719.00;;;25.90
14851;BMP180;7517;48.400;11.770;2023-07-16T08:10:08;96718.00;;;25.90
14851;BMP180;7517;48.400;11.770;2023-07-16T08:12:36;96721.00;;;25.90
14851;BMP180;7517;48.400;11.770;2023-07-16T08:15:04;96722.00;;;25.90
14851;BMP180;7517;48.400;11.770;2023-07-16T08:17:33;96715.00;;;25.90
14851;BMP180;7517;48.400;11.770;2023-07-16T08:20:02;96706.00;;;25.90
14851;BMP180;7517;48.400;11.770;2023-07-16T08:22:29;96705.00;;;25.90
14851;BMP180;7517;48.400;11.770;2023-07-16T08:24:57;96694.00;;;25.90
14851;BMP180;7517;48.400;11.770;2023-07-16T08:27:24;96704.00;;;25.90
14851;BMP180;7517;48.400;11.770;2023-07-16T08:29:51;96694.00;;;25.90
14851;BMP180;7517;48.400;11.770;2023-07-16T08:32:19;96694.00;;;25.90
14851;BMP180;7517;48.400;11.770;2023-07-16T08:34:47;96693.00;;;26.00
14851;BMP180;7517;48.400;11.770;2023-07-16T08:37:15;96688.00;;;26.00
14851;BMP180;7517;48.400;11.770;2023-07-16T08:39:42;96688.00;;;26.00
14851;BMP180;7517;48.400;11.770;2023-07-16T08:42:10;96687.00;;;26.10
14851;BMP180;7517;48.400;11.770;2023-07-16T08:44:40;96694.00;;;26.10
14851;BMP180;7517;48.400;11.770;2023-07-16T08:47:07;96691.00;;;26.20
14851;BMP180;7517;48.400;11.770;2023-07-16T08:49:35;96690.00;;;26.20
14851;BMP180;7517;48.400;11.770;2023-07-16T08:52:05;96692.00;;;26.30
14851;BMP180;7517;48.400;11.770;2023-07-16T08:54:35;96678.00;;;26.30
14851;BMP180;7517;48.400;11.770;2023-07-16T08:57:04;96669.00;;;26.30
14851;BMP180;7517;48.400;11.770;2023-07-16T08:59:32;96664.00;;;26.40
14851;BMP180;7517;48.400;11.770;2023-07-16T09:01:59;96664.00;;;26.50
14851;BMP180;7517;48.400;11.770;2023-07-16T09:04:27;96665.00;;;26.60
14851;BMP180;7517;48.400;11.770;2023-07-16T09:06:55;96662.00;;;26.70
14851;BMP180;7517;48.400;11.770;2023-07-16T09:09:23;96663.00;;;26.90
14851;BMP180;7517;48.400;11.770;2023-07-16T09:11:52;96671.00;;;27.00
14851;BMP180;7517;48.400;11.770;2023-07-16T09:14:20;96668.00;;;27.10
14851;BMP180;7517;48.400;11.770;2023-07-16T09:16:49;96672.00;;;27.30
14851;BMP180;7517;48.400;11.770;2023-07-16T09:19:17;96675.00;;;27.40
14851;BMP180;7517;48.400;11.770;2023-07-16T09:21:46;96668.00;;;27.50
14851;BMP180;7517;48.400;11.770;2023-07-16T09:24:14;96679.00;;;27.60
14851;BMP180;7517;48.400;11.770;2023-07-16T09:26:48;96685.00;;;27.70
14851;BMP180;7517;48.400;11.770;2023-07-16T09:29:17;96680.00;;;27.80
14851;BMP180;7517;48.400;11.770;2023-07-16T09:31:56;96675.00;;;27.90
14851;BMP180;7517;48.400;11.770;2023-07-16T09:34:23;96681.00;;;28.00
14851;BMP180;7517;48.400;11.770;2023-07-16T09:36:53;96675.00;;;28.00
14851;BMP180;7517;48.400;11.770;2023-07-16T09:39:20;96668.00;;;28.10
14851;BMP180;7517;48.400;11.770;2023-07-16T09:41:50;96669.00;;;28.20
14851;BMP180;7517;48.400;11.770;2023-07-16T09:44:19;96670.00;;;28.30
14851;BMP180;7517;48.400;11.770;2023-07-16T09:46:47;96672.00;;;28.50
14851;BMP180;7517;48.400;11.770;2023-07-16T09:49:15;96666.00;;;28.60
14851;BMP180;7517;48.400;11.770;2023-07-16T09:51:44;96669.00;;;28.70
14851;BMP180;7517;48.400;11.770;2023-07-16T09:54:14;96664.00;;;28.80
14851;BMP180;7517;48.400;11.770;2023-07-16T09:56:45;96660.00;;;28.90
14851;BMP180;7517;48.400;11.770;2023-07-16T09:59:19;96665.00;;;29.00
14851;BMP180;7517;48.400;11.770;2023-07-16T10:01:47;96662.00;;;29.10
14851;BMP180;7517;48.400;11.770;2023-07-16T10:04:21;96647.00;;;29.10
14851;BMP180;7517;48.400;11.770;2023-07-16T10:06:53;96649.00;;;29.20
14851;BMP180;7517;48.400;11.770;2023-07-16T10:09:38;96650.00;;;29.30
14851;BMP180;7517;48.400;11.770;2023-07-16T10:12:14;96637.00;;;29.40
14851;BMP180;7517;48.400;11.770;2023-07-16T10:14:46;96637.00;;;29.50
14851;BMP180;7517;48.400;11.770;2023-07-16T10:17:19;96638.00;;;29.60
14851;BMP180;7517;48.400;11.770;2023-07-16T10:19:50;96647.00;;;29.70
14851;BMP180;7517;48.400;11.770;2023-07-16T10:22:31;96648.00;;;29.70
14851;BMP180;7517;48.400;11.770;2023-07-16T10:24:59;96644.00;;;29.80
14851;BMP180;7517;48.400;11.770;2023-07-16T10:27:31;96647.00;;;29.80
14851;BMP180;7517;48.400;11.770;2023-07-16T10:30:02;96645.00;;;29.80
14851;BMP180;7517;48.400;11.770;2023-07-16T10:32:32;96649.00;;;29.80
14851;BMP180;7517;48.400;11.770;2023-07-16T10:35:00;96652.00;;;29.80
14851;BMP180;7517;48.400;11.770;2023-07-16T10:37:28;96644.00;;;29.80
14851;BMP180;7517;48.400;11.770;2023-07-16T10:39:59;96648.00;;;29.80
14851;BMP180;7517;48.400;11.770;2023-07-16T10:42:27;96655.00;;;29.80
14851;BMP180;7517;48.400;11.770;2023-07-16T10:44:58;96646.00;;;29.80
14851;BMP180;7517;48.400;11.770;2023-07-16T10:47:31;96651.00;;;29.70
14851;BMP180;7517;48.400;11.770;2023-07-16T10:49:59;96645.00;;;29.70
14851;BMP180;7517;48.400;11.770;2023-07-16T10:52:42;96643.00;;;29.70
14851;BMP180;7517;48.400;11.770;2023-07-16T10:55:09;96642.00;;;29.70
14851;BMP180;7517;48.400;11.770;2023-07-16T10:57:36;96641.00;;;29.70
14851;BMP180;7517;48.400;11.770;2023-07-16T11:00:04;96636.00;;;29.80
14851;BMP180;7517;48.400;11.770;2023-07-16T11:02:31;96640.00;;;29.80
14851;BMP180;7517;48.400;11.770;2023-07-16T11:04:58;96639.00;;;29.80
14851;BMP180;7517;48.400;11.770;2023-07-16T11:07:28;96629.00;;;29.90
14851;BMP180;7517;48.400;11.770;2023-07-16T11:09:56;96620.00;;;29.90
14851;BMP180;7517;48.400;11.770;2023-07-16T11:12:24;96615.00;;;29.90
14851;BMP180;7517;48.400;11.770;2023-07-16T11:14:54;96623.00;;;29.90
14851;BMP180;7517;48.400;11.770;2023-07-16T11:17:24;96623.00;;;29.90
14851;BMP180;7517;48.400;11.770;2023-07-16T11:19:53;96628.00;;;30.00
14851;BMP180;7517;48.400;11.770;2023-07-16T11:22:25;96630.00;;;30.00
14851;BMP180;7517;48.400;11.770;2023-07-16T11:24:53;96629.00;;;29.90
14851;BMP180;7517;48.400;11.770;2023-07-16T11:27:24;96637.00;;;29.90
14851;BMP180;7517;48.400;11.770;2023-07-16T11:29:55;96634.00;;;30.00
14851;BMP180;7517;48.400;11.770;2023-07-16T11:32:31;96621.00;;;30.00
14851;BMP180;7517;48.400;11.770;2023-07-16T11:34:59;96626.00;;;30.00
14851;BMP180;7517;48.400;11.770;2023-07-16T11:37:29;96618.00;;;30.10
14851;BMP180;7517;48.400;11.770;2023-07-16T11:39:58;96611.00;;;30.10
14851;BMP180;7517;48.400;11.770;2023-07-16T11:42:31;96608.00;;;30.10
14851;BMP180;7517;48.400;11.770;2023-07-16T11:44:59;96609.00;;;30.10
14851;BMP180;7517;48.400;11.770;2023-07-16T11:47:27;96610.00;;;30.10
14851;BMP180;7517;48.400;11.770;2023-07-16T11:49:55;96607.00;;;30.00
14851;BMP180;7517;48.400;11.770;2023-07-16T11:52:25;96618.00;;;30.00
14851;BMP180;7517;48.400;11.770;2023-07-16T11:54:52;96622.00;;;30.00
14851;BMP180;7517;48.400;11.770;2023-07-16T11:57:20;96623.00;;;30.00
14851;BMP180;7517;48.400;11.770;2023-07-16T11:59:50;96612.00;;;30.00
14851;BMP180;7517;48.400;11.770;2023-07-16T12:02:18;96601.00;;;30.00
14851;BMP180;7517;48.400;11.770;2023-07-16T12:04:46;96599.00;;;30.00
14851;BMP180;7517;48.400;11.770;2023-07-16T12:07:14;96592.00;;;30.10
14851;BMP180;7517;48.400;11.770;2023-07-16T12:09:42;96581.00;;;30.10
14851;BMP180;7517;48.400;11.770;2023-07-16T12:12:09;96587.00;;;30.10
14851;BMP180;7517;48.400;11.770;2023-07-16T12:14:37;96588.00;;;30.10
14851;BMP180;7517;48.400;11.770;2023-07-16T12:17:07;96589.00;;;30.20
14851;BMP180;7517;48.400;11.770;2023-07-16T12:19:34;96599.00;;;30.20
14851;BMP180;7517;48.400;11.770;2023-07-16T12:22:02;96598.00;;;30.20
14851;BMP180;7517;48.400;11.770;2023-07-16T12:24:29;96595.00;;;30.30
14851;BMP180;7517;48.400;11.770;2023-07-16T12:26:56;96594.00;;;30.30
14851;BMP180;7517;48.400;11.770;2023-07-16T12:29:23;96593.00;;;30.30
14851;BMP180;7517;48.400;11.770;2023-07-16T12:31:50;96589.00;;;30.30
14851;BMP180;7517;48.400;11.770;2023-07-16T12:34:19;96584.00;;;30.30
14851;BMP180;7517;48.400;11.770;2023-07-16T12:36:46;96582.00;;;30.30
14851;BMP180;7517;48.400;11.770;2023-07-16T12:39:13;96581.00;;;30.30
14851;BMP180;7517;48.400;11.770;2023-07-16T12:41:42;96584.00;;;30.30
14851;BMP180;7517;48.400;11.770;2023-07-16T12:44:09;96582.00;;;30.20
14851;BMP180;7517;48.400;11.770;2023-07-16T12:46:36;96576.00;;;30.30
14851;BMP180;7517;48.400;11.770;2023-07-16T12:49:03;96577.00;;;30.30
14851;BMP180;7517;48.400;11.770;2023-07-16T12:51:32;96584.00;;;30.30
14851;BMP180;7517;48.400;11.770;2023-07-16T12:53:59;96575.00;;;30.30
14851;BMP180;7517;48.400;11.770;2023-07-16T12:56:28;96581.00;;;30.30
14851;BMP180;7517;48.400;11.770;2023-07-16T12:58:56;96583.00;;;30.30
14851;BMP180;7517;48.400;11.770;2023-07-16T13:01:24;96582.00;;;30.30
14851;BMP180;7517;48.400;11.770;2023-07-16T13:03:51;96583.00;;;30.30
14851;BMP180;7517;48.400;11.770;2023-07-16T13:06:18;96578.00;;;30.30
14851;BMP180;7517;48.400;11.770;2023-07-16T13:08:46;96581.00;;;30.30
14851;BMP180;7517;48.400;11.770;2023-07-16T13:11:14;96580.00;;;30.30
14851;BMP180;7517;48.400;11.770;2023-07-16T13:13:41;96581.00;;;30.30
14851;BMP180;7517;48.400;11.770;2023-07-16T13:16:09;96585.00;;;30.30
14851;BMP180;7517;48.400;11.770;2023-07-16T13:18:37;96580.00;;;30.30
14851;BMP180;7517;48.400;11.770;2023-07-16T13:21:04;96578.00;;;30.30
14851;BMP180;7517;48.400;11.770;2023-07-16T13:23:32;96577.00;;;30.30
14851;BMP180;7517;48.400;11.770;2023-07-16T13:26:00;96584.00;;;30.30
14851;BMP180;7517;48.400;11.770;2023-07-16T13:28:28;96579.00;;;30.30
14851;BMP180;7517;48.400;11.770;2023-07-16T13:30:55;96580.00;;;30.30
14851;BMP180;7517;48.400;11.770;2023-07-16T13:33:22;96579.00;;;30.30
14851;BMP180;7517;48.400;11.770;2023-07-16T13:35:50;96570.00;;;30.30
14851;BMP180;7517;48.400;11.770;2023-07-16T13:38:17;96562.00;;;30.30
14851;BMP180;7517;48.400;11.770;2023-07-16T13:40:44;96565.00;;;30.30
14851;BMP180;7517;48.400;11.770;2023-07-16T13:43:13;96567.00;;;30.30
14851;BMP180;7517;48.400;11.770;2023-07-16T13:45:43;96568.00;;;30.30
14851;BMP180;7517;48.400;11.770;2023-07-16T13:48:14;96565.00;;;30.30
14851;BMP180;7517;48.400;11.770;2023-07-16T13:50:42;96566.00;;;30.30
14851;BMP180;7517;48.400;11.770;2023-07-16T13:53:09;96560.00;;;30.20
14851;BMP180;7517;48.400;11.770;2023-07-16T13:55:36;96563.00;;;30.20
14851;BMP180;7517;48.400;11.770;2023-07-16T13:58:04;96558.00;;;30.20
14851;BMP180;7517;48.400;11.770;2023-07-16T14:00:32;96553.00;;;30.20
14851;BMP180;7517;48.400;11.770;2023-07-16T14:02:59;96566.00;;;30.20
14851;BMP180;7517;48.400;11.770;2023-07-16T14:05:27;96565.00;;;30.20
14851;BMP180;7517;48.400;11.770;2023-07-16T14:07:54;96565.00;;;30.20
14851;BMP180;7517;48.400;11.770;2023-07-16T14:10:21;96569.00;;;30.20
14851;BMP180;7517;48.400;11.770;2023-07-16T14:12:49;96560.00;;;30.20
14851;BMP180;7517;48.400;11.770;2023-07-16T14:15:16;96552.00;;;30.20
14851;BMP180;7517;48.400;11.770;2023-07-16T14:17:44;96555.00;;;30.10
14851;BMP180;7517;48.400;11.770;2023-07-16T14:20:13;96557.00;;;30.10
14851;BMP180;7517;48.400;11.770;2023-07-16T14:22:41;96559.00;;;30.10